createdAt,value
2022-08-01T00:00:48.644Z,61.67
2022-08-01T00:03:16.828Z,61.54
2022-08-01T00:05:45.347Z,61.40
2022-08-01T00:08:11.882Z,61.44
2022-08-01T00:10:38.440Z,61.51
2022-08-01T00:13:06.712Z,61.42
2022-08-01T00:15:33.384Z,61.30
2022-08-01T00:18:00.083Z,61.27
2022-08-01T00:20:26.664Z,61.34
2022-08-01T00:22:57.728Z,61.52
2022-08-01T00:25:33.955Z,61.27
2022-08-01T00:28:01.442Z,61.59
2022-08-01T00:30:28.016Z,60.87
2022-08-01T00:32:58.537Z,61.55
2022-08-01T00:35:25.141Z,61.48
2022-08-01T00:37:52.909Z,61.61
2022-08-01T00:40:19.587Z,61.58
2022-08-01T00:42:49.840Z,61.46
2022-08-01T00:45:16.432Z,61.47
2022-08-01T00:47:42.982Z,61.56
2022-08-01T00:50:10.392Z,61.25
2022-08-01T00:52:37.330Z,61.42
2022-08-01T00:55:08.824Z,61.42
2022-08-01T00:58:03.853Z,61.73
2022-08-01T01:00:27.829Z,61.51
2022-08-01T01:02:59.328Z,61.53
2022-08-01T01:05:26.188Z,61.74
2022-08-01T01:08:28.117Z,62.00
2022-08-01T01:11:05.515Z,61.90
2022-08-01T01:13:50.978Z,61.77
2022-08-01T01:16:20.500Z,61.83
2022-08-01T01:18:56.556Z,61.92
2022-08-01T01:21:24.833Z,62.04
2022-08-01T01:24:25.645Z,61.79
2022-08-01T01:27:37.334Z,61.67
2022-08-01T01:30:04.842Z,61.90
2022-08-01T01:32:36.365Z,61.82
2022-08-01T01:35:10.198Z,61.60
2022-08-01T01:37:40.696Z,61.50
2022-08-01T01:40:10.643Z,61.54
2022-08-01T01:42:38.711Z,61.71
2022-08-01T01:45:08.354Z,61.72
2022-08-01T01:47:37.400Z,61.45
2022-08-01T01:50:05.367Z,61.59
2022-08-01T01:52:33.529Z,61.72
2022-08-01T01:55:08.008Z,61.60
2022-08-01T01:57:39.856Z,61.74
2022-08-01T02:00:09.113Z,61.77
2022-08-01T02:02:37.869Z,61.43
2022-08-01T02:05:06.278Z,61.56
2022-08-01T02:07:33.849Z,61.55
2022-08-01T02:10:03.028Z,61.55
2022-08-01T02:12:33.982Z,61.55
2022-08-01T02:15:02.307Z,61.55
2022-08-01T02:17:29.687Z,61.65
2022-08-01T02:19:56.655Z,61.52
2022-08-01T02:22:42.325Z,61.61
2022-08-01T02:25:23.789Z,61.45
2022-08-01T02:27:53.138Z,61.42
2022-08-01T02:30:20.655Z,61.43
2022-08-01T02:33:15.544Z,61.19
2022-08-01T02:36:29.771Z,60.94
2022-08-01T02:38:34.768Z,60.98
2022-08-01T02:41:06.680Z,61.04
2022-08-01T02:43:47.098Z,61.20
2022-08-01T02:46:30.509Z,61.22
2022-08-01T02:48:59.422Z,61.38
2022-08-01T02:51:27.140Z,61.60
2022-08-01T02:53:58.729Z,61.41
2022-08-01T02:56:35.602Z,61.39
2022-08-01T02:59:07.742Z,61.39
2022-08-01T03:01:39.334Z,61.44
2022-08-01T03:04:11.745Z,61.32
2022-08-01T03:06:39.855Z,61.35
2022-08-01T03:09:09.089Z,61.42
2022-08-01T03:11:40.258Z,61.25
2022-08-01T03:14:13.787Z,61.54
2022-08-01T03:16:42.950Z,61.22
2022-08-01T03:19:11.905Z,61.14
2022-08-01T03:21:40.650Z,61.05
2022-08-01T03:24:14.068Z,60.95
2022-08-01T03:26:42.599Z,61.14
2022-08-01T03:29:17.932Z,60.85
2022-08-01T03:31:45.952Z,60.66
2022-08-01T03:34:13.290Z,60.54
2022-08-01T03:36:50.849Z,60.58
2022-08-01T03:39:20.315Z,60.52
2022-08-01T03:41:56.921Z,60.53
2022-08-01T03:44:34.047Z,60.53
2022-08-01T03:47:05.160Z,60.57
2022-08-01T03:49:34.485Z,60.40
2022-08-01T03:52:05.601Z,60.51
2022-08-01T03:54:41.621Z,60.62
2022-08-01T03:57:09.754Z,60.36
2022-08-01T04:00:00.947Z,60.73
2022-08-01T04:02:28.379Z,60.88
2022-08-01T04:05:00.299Z,60.93
2022-08-01T04:07:29.474Z,61.11
2022-08-01T04:09:56.215Z,61.11
2022-08-01T04:12:22.916Z,61.38
2022-08-01T04:14:50.836Z,61.61
2022-08-01T04:17:18.052Z,61.87
2022-08-01T04:19:46.803Z,61.71
2022-08-01T04:22:15.926Z,61.51
2022-08-01T04:24:56.925Z,61.74
2022-08-01T04:27:50.292Z,61.80
2022-08-01T04:30:23.733Z,61.69
2022-08-01T04:32:58.546Z,61.76
2022-08-01T04:36:01.889Z,61.62
2022-08-01T04:38:18.605Z,62.08
2022-08-01T04:40:49.186Z,61.87
2022-08-01T04:43:16.931Z,62.20
2022-08-01T04:45:45.744Z,62.07
2022-08-01T04:48:14.306Z,62.19
2022-08-01T04:50:42.893Z,61.89
2022-08-01T04:53:19.604Z,62.19
2022-08-01T04:55:47.024Z,62.11
2022-08-01T04:58:18.305Z,62.21
2022-08-01T05:00:46.007Z,62.29
2022-08-01T05:03:15.307Z,62.58
2022-08-01T05:05:41.894Z,62.36
2022-08-01T05:08:08.483Z,62.34
2022-08-01T05:10:35.231Z,62.48
2022-08-01T05:13:38.931Z,62.67
2022-08-01T05:16:05.678Z,62.32
2022-08-01T05:18:32.311Z,62.60
2022-08-01T05:20:59.415Z,62.18
2022-08-01T05:23:41.997Z,62.54
2022-08-01T05:26:10.069Z,62.44
2022-08-01T05:28:36.771Z,62.59
2022-08-01T05:31:04.775Z,62.49
2022-08-01T05:33:35.609Z,62.55
2022-08-01T05:36:02.138Z,62.23
2022-08-01T05:38:28.673Z,62.57
2022-08-01T05:40:55.323Z,62.59
2022-08-01T05:43:28.478Z,62.84
2022-08-01T05:45:55.655Z,62.50
2022-08-01T05:48:22.435Z,62.44
2022-08-01T05:50:49.040Z,62.60
2022-08-01T05:53:15.682Z,62.39
2022-08-01T05:55:42.531Z,62.69
2022-08-01T05:58:12.403Z,62.28
2022-08-01T06:00:39.917Z,62.23
2022-08-01T06:03:09.509Z,62.24
2022-08-01T06:05:36.234Z,62.26
2022-08-01T06:08:02.868Z,62.20
2022-08-01T06:10:29.375Z,62.44
2022-08-01T06:13:00.622Z,62.21
2022-08-01T06:15:27.311Z,62.35
2022-08-01T06:17:53.890Z,62.52
2022-08-01T06:20:20.513Z,62.35
2022-08-01T06:22:53.116Z,62.31
2022-08-01T06:25:21.389Z,62.02
2022-08-01T06:27:49.062Z,62.12
2022-08-01T06:30:15.912Z,61.97
2022-08-01T06:32:42.469Z,61.78
2022-08-01T06:35:09.446Z,62.15
2022-08-01T06:37:35.989Z,61.42
2022-08-01T06:40:07.593Z,61.52
2022-08-01T06:42:36.589Z,61.57
2022-08-01T06:45:10.700Z,61.31
2022-08-01T06:47:38.092Z,61.51
2022-08-01T06:50:06.677Z,61.09
2022-08-01T06:52:37.171Z,61.23
2022-08-01T06:55:05.363Z,60.84
2022-08-01T06:57:32.281Z,60.88
2022-08-01T07:00:01.855Z,60.78
2022-08-01T07:02:28.451Z,60.45
2022-08-01T07:04:54.981Z,60.73
2022-08-01T07:07:21.511Z,60.91
2022-08-01T07:09:48.026Z,60.55
2022-08-01T07:12:14.532Z,60.42
2022-08-01T07:14:42.375Z,60.23
2022-08-01T07:17:08.889Z,60.07
2022-08-01T07:19:36.521Z,60.24
2022-08-01T07:22:05.535Z,60.14
2022-08-01T07:24:33.369Z,60.16
2022-08-01T07:27:24.151Z,60.12
2022-08-01T07:29:48.791Z,59.76
2022-08-01T07:32:15.507Z,59.58
2022-08-01T07:34:44.805Z,59.60
2022-08-01T07:37:11.319Z,59.52
2022-08-01T07:39:38.006Z,59.12
2022-08-01T07:42:07.126Z,59.31
2022-08-01T07:44:34.779Z,59.31
2022-08-01T07:47:01.461Z,59.06
2022-08-01T07:49:28.353Z,59.00
2022-08-01T07:52:03.592Z,58.69
2022-08-01T07:54:33.464Z,58.70
2022-08-01T07:57:01.308Z,58.60
2022-08-01T07:59:27.882Z,58.52
2022-08-01T08:01:54.758Z,58.50
2022-08-01T08:04:24.502Z,57.83
2022-08-01T08:06:51.111Z,57.80
2022-08-01T08:09:17.632Z,58.04
2022-08-01T08:11:47.861Z,57.04
2022-08-01T08:14:16.726Z,56.79
2022-08-01T08:16:43.741Z,56.98
2022-08-01T08:19:10.781Z,56.87
2022-08-01T08:21:38.684Z,56.86
2022-08-01T08:24:26.525Z,56.62
2022-08-01T08:27:03.823Z,56.48
2022-08-01T08:29:33.543Z,56.52
2022-08-01T08:32:01.597Z,56.65
2022-08-01T08:34:29.948Z,56.25
2022-08-01T08:36:59.033Z,56.08
2022-08-01T08:39:26.387Z,56.29
2022-08-01T08:41:54.032Z,56.01
2022-08-01T08:44:46.250Z,55.64
2022-08-01T08:47:19.678Z,55.82
2022-08-01T08:49:46.891Z,55.46
2022-08-01T08:52:18.354Z,55.30
2022-08-01T08:54:46.999Z,55.03
2022-08-01T08:57:15.636Z,54.81
2022-08-01T08:59:44.302Z,54.64
2022-08-01T09:02:12.641Z,54.95
2022-08-01T09:04:42.456Z,54.84
2022-08-01T09:07:09.762Z,54.53
2022-08-01T09:09:41.830Z,54.52
2022-08-01T09:12:10.036Z,54.05
2022-08-01T09:14:46.398Z,53.73
2022-08-01T09:17:13.663Z,53.67
2022-08-01T09:19:44.330Z,53.09
2022-08-01T09:22:19.186Z,52.96
2022-08-01T09:24:59.447Z,52.75
2022-08-01T09:27:26.498Z,52.32
2022-08-01T09:30:01.657Z,52.21
2022-08-01T09:32:35.194Z,51.76
2022-08-01T09:35:30.732Z,51.37
2022-08-01T09:38:20.334Z,51.19
2022-08-01T09:40:58.360Z,51.06
2022-08-01T09:43:31.616Z,50.49
2022-08-01T09:45:59.276Z,50.10
2022-08-01T09:48:28.481Z,49.91
2022-08-01T09:51:04.536Z,49.87
2022-08-01T09:53:51.988Z,49.21
2022-08-01T09:56:21.989Z,49.08
2022-08-01T09:58:57.951Z,49.38
2022-08-01T10:01:26.152Z,49.10
2022-08-01T10:04:16.930Z,48.60
2022-08-01T10:06:47.124Z,48.53
2022-08-01T10:09:15.270Z,47.90
2022-08-01T10:11:45.057Z,47.53
2022-08-01T10:14:20.939Z,47.12
2022-08-01T10:16:53.581Z,46.91
2022-08-01T10:19:24.552Z,47.04
2022-08-01T10:21:58.104Z,46.72
2022-08-01T10:24:29.728Z,46.62
2022-08-01T10:27:09.222Z,46.64
2022-08-01T10:29:59.789Z,46.66
2022-08-01T10:32:24.841Z,46.53
2022-08-01T10:35:06.202Z,46.43
2022-08-01T10:37:36.407Z,46.12
2022-08-01T10:40:35.390Z,46.46
2022-08-01T10:43:03.765Z,46.50
2022-08-01T10:45:30.775Z,46.40
2022-08-01T10:48:20.765Z,46.31
2022-08-01T10:50:50.237Z,46.46
2022-08-01T10:53:23.842Z,46.41
2022-08-01T10:56:02.384Z,46.44
2022-08-01T10:58:42.894Z,46.52
2022-08-01T11:01:25.618Z,46.76
2022-08-01T11:03:59.153Z,47.33
2022-08-01T11:06:33.555Z,47.18
2022-08-01T11:09:06.053Z,47.57
2022-08-01T11:11:37.383Z,47.58
2022-08-01T11:14:15.961Z,47.79
2022-08-01T11:16:42.929Z,47.87
2022-08-01T11:19:10.005Z,47.80
2022-08-01T11:22:01.089Z,47.61
2022-08-01T11:24:46.973Z,47.57
2022-08-01T11:27:23.604Z,47.50
2022-08-01T11:30:08.970Z,47.35
2022-08-01T11:33:13.066Z,47.13
2022-08-01T11:36:14.608Z,47.25
2022-08-01T11:38:45.620Z,47.12
2022-08-01T11:41:36.847Z,46.95
2022-08-01T11:44:17.447Z,46.93
2022-08-01T11:47:11.574Z,47.11
2022-08-01T11:49:49.315Z,47.19
2022-08-01T11:52:34.711Z,47.11
2022-08-01T11:55:11.523Z,47.54
2022-08-01T11:57:39.542Z,47.25
2022-08-01T12:00:17.591Z,47.15
2022-08-01T12:03:00.876Z,47.14
2022-08-01T12:05:34.551Z,47.16
2022-08-01T12:08:01.742Z,46.87
2022-08-01T12:10:37.153Z,46.76
2022-08-01T12:13:21.199Z,46.62
2022-08-01T12:15:50.473Z,46.27
2022-08-01T12:18:19.458Z,45.63
2022-08-01T12:20:56.510Z,45.41
2022-08-01T12:23:25.253Z,45.26
2022-08-01T12:25:53.176Z,45.22
2022-08-01T12:28:19.819Z,44.75
2022-08-01T12:30:49.719Z,44.92
2022-08-01T12:33:22.036Z,44.57
2022-08-01T12:35:49.439Z,44.33
2022-08-01T12:38:23.902Z,43.89
2022-08-01T12:40:54.952Z,43.84
2022-08-01T12:43:27.865Z,43.50
2022-08-01T12:46:00.438Z,43.36
2022-08-01T12:48:27.999Z,43.28
2022-08-01T12:50:58.566Z,43.21
2022-08-01T12:53:40.241Z,43.50
2022-08-01T12:56:10.487Z,43.17
2022-08-01T12:58:37.143Z,42.42
2022-08-01T13:01:07.166Z,42.59
2022-08-01T13:03:38.686Z,42.39
2022-08-01T13:06:17.276Z,42.29
2022-08-01T13:08:46.024Z,42.33
2022-08-01T13:11:18.201Z,42.06
2022-08-01T13:13:52.671Z,42.07
2022-08-01T13:16:34.323Z,42.22
2022-08-01T13:19:08.789Z,42.14
2022-08-01T13:21:52.564Z,41.76
2022-08-01T13:24:30.613Z,41.72
2022-08-01T13:27:03.498Z,41.51
2022-08-01T13:29:44.058Z,41.63
2022-08-01T13:32:28.357Z,41.89
2022-08-01T13:35:05.921Z,42.08
2022-08-01T13:37:32.924Z,42.17
2022-08-01T13:39:59.872Z,42.10
2022-08-01T13:42:26.454Z,42.30
2022-08-01T13:44:53.145Z,42.14
2022-08-01T13:47:19.929Z,41.95
2022-08-01T13:50:01.462Z,41.75
2022-08-01T13:52:28.650Z,41.69
2022-08-01T13:54:55.231Z,41.92
2022-08-01T13:57:22.727Z,41.99
2022-08-01T13:59:49.398Z,41.65
2022-08-01T14:02:15.921Z,41.49
2022-08-01T14:04:47.526Z,41.47
2022-08-01T14:07:14.983Z,41.45
2022-08-01T14:10:04.423Z,41.41
2022-08-01T14:12:28.757Z,41.27
2022-08-01T14:14:57.319Z,41.75
2022-08-01T14:17:24.210Z,41.62
2022-08-01T14:19:50.877Z,41.70
2022-08-01T14:22:17.365Z,41.78
2022-08-01T14:24:48.642Z,41.67
2022-08-01T14:27:15.134Z,41.77
2022-08-01T14:30:02.186Z,41.71
2022-08-01T14:32:29.102Z,41.78
2022-08-01T14:35:01.613Z,41.72
2022-08-01T14:37:31.748Z,41.27
2022-08-01T14:40:06.320Z,41.59
2022-08-01T14:42:34.745Z,41.66
2022-08-01T14:45:09.692Z,41.53
2022-08-01T14:47:37.112Z,41.67
2022-08-01T14:50:06.093Z,41.68
2022-08-01T14:52:34.116Z,41.83
2022-08-01T14:55:08.956Z,41.01
2022-08-01T14:57:36.182Z,41.30
2022-08-01T15:00:05.528Z,41.14
2022-08-01T15:02:32.072Z,41.28
2022-08-01T15:05:03.423Z,40.77
2022-08-01T15:07:29.953Z,40.73
2022-08-01T15:09:57.218Z,40.68
2022-08-01T15:12:23.764Z,40.38
2022-08-01T15:14:52.375Z,40.20
2022-08-01T15:17:30.393Z,39.73
2022-08-01T15:19:58.899Z,39.81
2022-08-01T15:22:26.418Z,39.51
2022-08-01T15:25:00.133Z,39.33
2022-08-01T15:27:27.791Z,39.26
2022-08-01T15:29:55.426Z,39.30
2022-08-01T15:32:22.384Z,39.54
2022-08-01T15:34:53.387Z,39.05
2022-08-01T15:37:21.783Z,39.46
2022-08-01T15:39:49.410Z,38.96
2022-08-01T15:42:20.237Z,39.09
2022-08-01T15:44:56.069Z,38.78
2022-08-01T15:47:24.999Z,38.52
2022-08-01T15:49:52.694Z,39.03
2022-08-01T15:52:22.412Z,38.88
2022-08-01T15:54:53.747Z,38.63
2022-08-01T15:57:20.350Z,38.90
2022-08-01T15:59:46.954Z,38.56
2022-08-01T16:02:14.525Z,38.42
2022-08-01T16:04:45.137Z,37.92
2022-08-01T16:07:11.786Z,37.66
2022-08-01T16:09:38.674Z,37.55
2022-08-01T16:12:08.360Z,37.80
2022-08-01T16:15:01.126Z,37.74
2022-08-01T16:17:27.927Z,37.77
2022-08-01T16:19:54.482Z,37.52
2022-08-01T16:22:20.997Z,37.45
2022-08-01T16:24:51.591Z,37.23
2022-08-01T16:27:18.385Z,37.25
2022-08-01T16:29:45.050Z,37.26
2022-08-01T16:32:14.009Z,37.69
2022-08-01T16:34:57.367Z,37.04
2022-08-01T16:37:25.367Z,37.33
2022-08-01T16:39:51.887Z,37.00
2022-08-01T16:42:18.490Z,37.04
2022-08-01T16:44:48.923Z,36.88
2022-08-01T16:47:16.369Z,37.07
2022-08-01T16:49:45.329Z,36.16
2022-08-01T16:52:16.725Z,36.48
2022-08-01T16:54:46.301Z,36.21
2022-08-01T16:57:13.062Z,36.45
2022-08-01T16:59:41.571Z,36.13
2022-08-01T17:02:09.903Z,36.29
2022-08-01T17:04:38.101Z,36.55
2022-08-01T17:07:07.336Z,36.35
2022-08-01T17:09:34.338Z,36.30
2022-08-01T17:12:00.989Z,36.41
2022-08-01T17:14:29.658Z,36.26
2022-08-01T17:16:56.189Z,36.10
2022-08-01T17:19:32.483Z,36.15
2022-08-01T17:21:59.770Z,36.26
2022-08-01T17:24:26.333Z,36.08
2022-08-01T17:26:55.942Z,36.03
2022-08-01T17:29:22.568Z,36.26
2022-08-01T17:31:49.227Z,36.24
2022-08-01T17:34:20.016Z,36.07
2022-08-01T17:36:46.595Z,36.04
2022-08-01T17:39:13.569Z,35.80
2022-08-01T17:41:41.291Z,36.05
2022-08-01T17:44:09.426Z,36.38
2022-08-01T17:46:36.088Z,36.17
2022-08-01T17:49:04.003Z,36.36
2022-08-01T17:51:31.005Z,35.97
2022-08-01T17:54:08.069Z,36.34
2022-08-01T17:56:38.162Z,36.44
2022-08-01T17:59:15.650Z,36.66
2022-08-01T18:01:45.220Z,36.37
2022-08-01T18:04:16.050Z,36.52
2022-08-01T18:06:58.277Z,37.18
2022-08-01T18:09:25.683Z,36.65
2022-08-01T18:11:52.523Z,36.28
2022-08-01T18:14:37.934Z,36.12
2022-08-01T18:17:08.626Z,35.99
2022-08-01T18:19:38.698Z,36.22
2022-08-01T18:22:06.013Z,36.09
2022-08-01T18:24:53.662Z,36.69
2022-08-01T18:27:20.416Z,36.54
2022-08-01T18:29:48.380Z,36.44
2022-08-01T18:32:15.434Z,36.46
2022-08-01T18:34:42.969Z,36.49
2022-08-01T18:37:12.120Z,36.25
2022-08-01T18:39:40.059Z,36.24
2022-08-01T18:42:07.103Z,36.34
2022-08-01T18:44:36.954Z,36.78
2022-08-01T18:47:04.111Z,36.53
2022-08-01T18:49:31.118Z,36.83
2022-08-01T18:51:58.416Z,36.68
2022-08-01T18:54:29.645Z,37.07
2022-08-01T18:56:56.215Z,37.29
2022-08-01T18:59:23.160Z,37.28
2022-08-01T19:01:54.990Z,37.58
2022-08-01T19:04:21.839Z,37.68
2022-08-01T19:06:48.528Z,37.65
2022-08-01T19:09:20.725Z,38.00
2022-08-01T19:11:50.048Z,38.14
2022-08-01T19:14:17.966Z,38.21
2022-08-01T19:16:47.151Z,38.16
2022-08-01T19:19:14.159Z,38.47
2022-08-01T19:21:44.807Z,38.69
2022-08-01T19:24:22.567Z,38.82
2022-08-01T19:27:08.664Z,38.92
2022-08-01T19:29:42.254Z,39.08
2022-08-01T19:32:10.477Z,38.92
2022-08-01T19:34:49.932Z,39.32
2022-08-01T19:37:16.587Z,39.36
2022-08-01T19:39:44.982Z,39.50
2022-08-01T19:42:12.769Z,39.51
2022-08-01T19:44:40.561Z,39.76
2022-08-01T19:47:07.785Z,39.96
2022-08-01T19:49:34.622Z,39.98
2022-08-01T19:52:03.219Z,40.18
2022-08-01T19:54:41.114Z,40.20
2022-08-01T19:57:08.487Z,40.23
2022-08-01T19:59:35.974Z,40.44
2022-08-01T20:02:03.543Z,40.40
2022-08-01T20:04:35.382Z,40.64
2022-08-01T20:07:03.195Z,40.96
2022-08-01T20:09:31.324Z,41.17
2022-08-01T20:11:57.878Z,41.10
2022-08-01T20:14:26.752Z,41.37
2022-08-01T20:16:55.020Z,41.44
2022-08-01T20:19:24.406Z,41.38
2022-08-01T20:22:02.582Z,41.78
2022-08-01T20:24:39.528Z,41.74
2022-08-01T20:27:08.824Z,41.66
2022-08-01T20:29:36.808Z,41.90
2022-08-01T20:32:05.159Z,41.78
2022-08-01T20:34:39.328Z,41.92
2022-08-01T20:37:12.926Z,42.22
2022-08-01T20:39:43.438Z,42.05
2022-08-01T20:42:11.349Z,42.06
2022-08-01T20:44:40.353Z,42.21
2022-08-01T20:47:07.020Z,42.18
2022-08-01T20:49:36.543Z,42.37
2022-08-01T20:52:11.748Z,42.58
2022-08-01T20:54:42.553Z,42.64
2022-08-01T20:57:20.197Z,42.39
2022-08-01T20:59:55.676Z,42.73
2022-08-01T21:03:05.746Z,42.65
2022-08-01T21:05:37.255Z,42.46
2022-08-01T21:08:12.607Z,42.59
2022-08-01T21:10:41.262Z,42.53
2022-08-01T21:13:28.027Z,42.69
2022-08-01T21:16:22.856Z,42.77
2022-08-01T21:19:19.130Z,42.63
2022-08-01T21:22:06.874Z,42.95
2022-08-01T21:24:59.001Z,42.71
2022-08-01T21:27:33.212Z,43.14
2022-08-01T21:30:04.098Z,43.45
2022-08-01T21:32:36.084Z,43.55
2022-08-01T21:35:07.186Z,43.51
2022-08-01T21:37:44.657Z,43.57
2022-08-01T21:40:19.558Z,43.41
2022-08-01T21:42:53.112Z,43.75
2022-08-01T21:45:24.055Z,43.88
2022-08-01T21:47:51.657Z,44.13
2022-08-01T21:50:18.410Z,44.42
2022-08-01T21:53:11.799Z,45.07
2022-08-01T21:55:51.589Z,44.73
2022-08-01T21:58:34.793Z,45.10
2022-08-01T22:01:32.625Z,45.24
2022-08-01T22:04:03.111Z,45.44
2022-08-01T22:06:34.245Z,45.42
2022-08-01T22:09:06.122Z,45.56
2022-08-01T22:11:36.177Z,45.93
2022-08-01T22:14:29.095Z,46.18
2022-08-01T22:16:56.761Z,45.79
2022-08-01T22:19:37.789Z,46.28
2022-08-01T22:22:34.216Z,46.20
2022-08-01T22:24:59.510Z,46.49
2022-08-01T22:28:05.990Z,46.08
2022-08-01T22:30:15.860Z,46.53
2022-08-01T22:32:44.102Z,46.42
2022-08-01T22:35:15.954Z,46.30
2022-08-01T22:37:56.958Z,46.08
2022-08-01T22:40:24.356Z,46.47
2022-08-01T22:43:02.431Z,46.38
2022-08-01T22:45:49.565Z,46.69
2022-08-01T22:48:34.729Z,46.73
2022-08-01T22:51:21.017Z,46.79
2022-08-01T22:54:07.574Z,46.56
2022-08-01T22:56:39.429Z,46.60
2022-08-01T22:59:14.533Z,46.41
2022-08-01T23:01:48.463Z,47.01
2022-08-01T23:04:34.766Z,46.88
2022-08-01T23:07:06.090Z,46.80
2022-08-01T23:09:52.947Z,47.42
2022-08-01T23:12:22.830Z,47.15
2022-08-01T23:14:55.715Z,47.54
2022-08-01T23:17:26.400Z,47.66
2022-08-01T23:20:00.830Z,47.35
2022-08-01T23:22:32.486Z,47.80
2022-08-01T23:25:04.099Z,47.47
2022-08-01T23:27:51.830Z,47.58
2022-08-01T23:30:24.189Z,47.60
2022-08-01T23:32:53.543Z,47.97
2022-08-01T23:35:20.250Z,47.88
2022-08-01T23:37:46.930Z,48.13
2022-08-01T23:40:13.550Z,48.46
2022-08-01T23:42:40.149Z,48.48
2022-08-01T23:45:11.095Z,48.34
2022-08-01T23:47:37.615Z,48.82
2022-08-01T23:50:04.695Z,48.50
2022-08-01T23:52:32.539Z,48.62
2022-08-01T23:55:14.663Z,48.73
2022-08-01T23:57:42.092Z,48.88
